sensor_id;sensor_type;location;lat;lon;timestamp;temperature;humidity
68801;SHT31;55784;50.734;7.086;2023-07-29T00:00:33;20.25;90.66
68801;SHT31;55784;50.734;7.086;2023-07-29T00:02:58;20.28;90.42
68801;SHT31;55784;50.734;7.086;2023-07-29T00:05:23;20.26;90.53
68801;SHT31;55784;50.734;7.086;2023-07-29T00:07:49;20.26;90.61
68801;SHT31;55784;50.734;7.086;2023-07-29T00:10:14;20.25;90.47
68801;SHT31;55784;50.734;7.086;2023-07-29T00:12:39;20.28;90.40
68801;SHT31;55784;50.734;7.086;2023-07-29T00:15:05;20.26;90.49
68801;SHT31;55784;50.734;7.086;2023-07-29T00:17:31;20.28;90.42
68801;SHT31;55784;50.734;7.086;2023-07-29T00:19:56;20.28;90.27
68801;SHT31;55784;50.734;7.086;2023-07-29T00:22:21;20.25;90.45
68801;SHT31;55784;50.734;7.086;2023-07-29T00:24:52;20.26;90.48
68801;SHT31;55784;50.734;7.086;2023-07-29T00:27:19;20.23;90.49
68801;SHT31;55784;50.734;7.086;2023-07-29T00:29:45;20.22;90.30
68801;SHT31;55784;50.734;7.086;2023-07-29T00:32:10;20.23;90.29
68801;SHT31;55784;50.734;7.086;2023-07-29T00:34:35;20.19;90.41
68801;SHT31;55784;50.734;7.086;2023-07-29T00:37:01;20.18;90.52
68801;SHT31;55784;50.734;7.086;2023-07-29T00:39:26;20.22;90.28
68801;SHT31;55784;50.734;7.086;2023-07-29T00:41:52;20.19;90.28
68801;SHT31;55784;50.734;7.086;2023-07-29T00:44:17;20.16;90.29
68801;SHT31;55784;50.734;7.086;2023-07-29T00:46:45;20.15;90.33
68801;SHT31;55784;50.734;7.086;2023-07-29T00:49:10;20.11;90.39
68801;SHT31;55784;50.734;7.086;2023-07-29T00:51:36;20.08;90.24
68801;SHT31;55784;50.734;7.086;2023-07-29T00:54:02;20.06;90.41
68801;SHT31;55784;50.734;7.086;2023-07-29T00:56:27;20.08;90.55
68801;SHT31;55784;50.734;7.086;2023-07-29T00:58:55;20.09;90.52
68801;SHT31;55784;50.734;7.086;2023-07-29T01:01:25;20.12;90.43
68801;SHT31;55784;50.734;7.086;2023-07-29T01:03:50;20.05;90.65
68801;SHT31;55784;50.734;7.086;2023-07-29T01:08:52;20.08;90.53
68801;SHT31;55784;50.734;7.086;2023-07-29T01:14:05;20.05;90.74
68801;SHT31;55784;50.734;7.086;2023-07-29T01:16:41;20.04;90.79
68801;SHT31;55784;50.734;7.086;2023-07-29T01:21:56;20.08;90.76
68801;SHT31;55784;50.734;7.086;2023-07-29T01:24:21;20.08;90.72
68801;SHT31;55784;50.734;7.086;2023-07-29T01:26:49;20.06;90.69
68801;SHT31;55784;50.734;7.086;2023-07-29T01:29:15;20.06;90.75
68801;SHT31;55784;50.734;7.086;2023-07-29T01:31:43;20.06;90.78
68801;SHT31;55784;50.734;7.086;2023-07-29T01:34:13;20.09;90.70
68801;SHT31;55784;50.734;7.086;2023-07-29T01:36:41;20.08;90.73
68801;SHT31;55784;50.734;7.086;2023-07-29T01:39:08;20.11;90.66
68801;SHT31;55784;50.734;7.086;2023-07-29T01:41:36;20.12;90.69
68801;SHT31;55784;50.734;7.086;2023-07-29T01:44:06;20.12;90.64
68801;SHT31;55784;50.734;7.086;2023-07-29T01:46:34;20.16;90.49
68801;SHT31;55784;50.734;7.086;2023-07-29T01:49:02;20.18;90.42
68801;SHT31;55784;50.734;7.086;2023-07-29T01:51:27;20.15;90.45
68801;SHT31;55784;50.734;7.086;2023-07-29T01:53:52;20.18;90.41
68801;SHT31;55784;50.734;7.086;2023-07-29T01:56:18;20.15;90.42
68801;SHT31;55784;50.734;7.086;2023-07-29T01:58:46;20.18;90.37
68801;SHT31;55784;50.734;7.086;2023-07-29T02:01:12;20.15;90.49
68801;SHT31;55784;50.734;7.086;2023-07-29T02:03:37;20.09;90.77
68801;SHT31;55784;50.734;7.086;2023-07-29T02:06:03;20.11;90.74
68801;SHT31;55784;50.734;7.086;2023-07-29T02:08:28;20.09;90.75
68801;SHT31;55784;50.734;7.086;2023-07-29T02:10:53;20.05;90.73
68801;SHT31;55784;50.734;7.086;2023-07-29T02:13:18;20.02;90.93
68801;SHT31;55784;50.734;7.086;2023-07-29T02:15:44;20.04;90.97
68801;SHT31;55784;50.734;7.086;2023-07-29T02:18:09;20.05;91.06
68801;SHT31;55784;50.734;7.086;2023-07-29T02:20:34;20.08;91.18
68801;SHT31;55784;50.734;7.086;2023-07-29T02:22:59;20.12;91.16
68801;SHT31;55784;50.734;7.086;2023-07-29T02:25:25;20.08;91.24
68801;SHT31;55784;50.734;7.086;2023-07-29T02:27:50;20.12;91.17
68801;SHT31;55784;50.734;7.086;2023-07-29T02:30:15;20.13;91.05
68801;SHT31;55784;50.734;7.086;2023-07-29T02:32:41;20.08;91.44
68801;SHT31;55784;50.734;7.086;2023-07-29T02:35:06;20.09;91.35
68801;SHT31;55784;50.734;7.086;2023-07-29T02:37:32;20.05;91.46
68801;SHT31;55784;50.734;7.086;2023-07-29T02:39:57;20.02;91.58
68801;SHT31;55784;50.734;7.086;2023-07-29T02:42:22;19.96;91.66
68801;SHT31;55784;50.734;7.086;2023-07-29T02:44:47;19.93;91.88
68801;SHT31;55784;50.734;7.086;2023-07-29T02:47:13;19.92;92.23
68801;SHT31;55784;50.734;7.086;2023-07-29T02:49:38;19.92;92.56
68801;SHT31;55784;50.734;7.086;2023-07-29T02:52:04;19.89;92.46
68801;SHT31;55784;50.734;7.086;2023-07-29T02:54:29;19.92;92.63
68801;SHT31;55784;50.734;7.086;2023-07-29T02:56:54;19.93;92.61
68801;SHT31;55784;50.734;7.086;2023-07-29T02:59:20;19.88;92.57
68801;SHT31;55784;50.734;7.086;2023-07-29T03:01:45;19.85;92.64
68801;SHT31;55784;50.734;7.086;2023-07-29T03:04:10;19.88;92.59
68801;SHT31;55784;50.734;7.086;2023-07-29T03:06:38;19.82;92.34
68801;SHT31;55784;50.734;7.086;2023-07-29T03:09:03;19.82;91.63
68801;SHT31;55784;50.734;7.086;2023-07-29T03:11:28;19.78;90.69
68801;SHT31;55784;50.734;7.086;2023-07-29T03:13:54;19.77;89.89
68801;SHT31;55784;50.734;7.086;2023-07-29T03:16:19;19.79;90.32
68801;SHT31;55784;50.734;7.086;2023-07-29T03:18:44;19.78;91.05
68801;SHT31;55784;50.734;7.086;2023-07-29T03:21:10;19.74;90.74
68801;SHT31;55784;50.734;7.086;2023-07-29T03:23:37;19.68;90.16
68801;SHT31;55784;50.734;7.086;2023-07-29T03:26:03;19.68;90.46
68801;SHT31;55784;50.734;7.086;2023-07-29T03:28:36;19.72;90.76
68801;SHT31;55784;50.734;7.086;2023-07-29T03:31:02;19.75;90.81
68801;SHT31;55784;50.734;7.086;2023-07-29T03:33:28;19.77;91.14
68801;SHT31;55784;50.734;7.086;2023-07-29T03:35:53;19.77;91.40
68801;SHT31;55784;50.734;7.086;2023-07-29T03:38:18;19.75;91.57
68801;SHT31;55784;50.734;7.086;2023-07-29T03:40:44;19.78;91.70
68801;SHT31;55784;50.734;7.086;2023-07-29T03:43:09;19.79;91.94
68801;SHT31;55784;50.734;7.086;2023-07-29T03:45:36;19.70;92.87
68801;SHT31;55784;50.734;7.086;2023-07-29T03:48:02;19.61;92.08
68801;SHT31;55784;50.734;7.086;2023-07-29T03:50:28;19.57;92.51
68801;SHT31;55784;50.734;7.086;2023-07-29T03:52:54;19.55;92.69
68801;SHT31;55784;50.734;7.086;2023-07-29T03:55:20;19.53;92.82
68801;SHT31;55784;50.734;7.086;2023-07-29T03:57:46;19.51;92.78
68801;SHT31;55784;50.734;7.086;2023-07-29T04:00:11;19.48;92.96
68801;SHT31;55784;50.734;7.086;2023-07-29T04:02:37;19.47;93.49
68801;SHT31;55784;50.734;7.086;2023-07-29T04:05:03;19.44;93.52
68801;SHT31;55784;50.734;7.086;2023-07-29T04:07:28;19.43;93.75
68801;SHT31;55784;50.734;7.086;2023-07-29T04:09:54;19.37;93.86
68801;SHT31;55784;50.734;7.086;2023-07-29T04:12:19;19.37;93.82
68801;SHT31;55784;50.734;7.086;2023-07-29T04:14:46;19.37;94.04
68801;SHT31;55784;50.734;7.086;2023-07-29T04:17:11;19.32;94.13
68801;SHT31;55784;50.734;7.086;2023-07-29T04:19:37;19.26;94.42
68801;SHT31;55784;50.734;7.086;2023-07-29T04:22:02;19.24;94.59
68801;SHT31;55784;50.734;7.086;2023-07-29T04:24:28;19.23;94.56
68801;SHT31;55784;50.734;7.086;2023-07-29T04:26:53;19.20;94.81
68801;SHT31;55784;50.734;7.086;2023-07-29T04:29:18;19.20;95.07
68801;SHT31;55784;50.734;7.086;2023-07-29T04:31:43;19.20;95.16
68801;SHT31;55784;50.734;7.086;2023-07-29T04:34:09;19.21;95.06
68801;SHT31;55784;50.734;7.086;2023-07-29T04:36:34;19.20;95.08
68801;SHT31;55784;50.734;7.086;2023-07-29T04:39:00;19.17;95.26
68801;SHT31;55784;50.734;7.086;2023-07-29T04:41:25;19.16;95.35
68801;SHT31;55784;50.734;7.086;2023-07-29T04:43:50;19.17;95.54
68801;SHT31;55784;50.734;7.086;2023-07-29T04:46:16;19.20;95.39
68801;SHT31;55784;50.734;7.086;2023-07-29T04:48:41;19.21;95.62
68801;SHT31;55784;50.734;7.086;2023-07-29T04:51:06;19.24;95.56
68801;SHT31;55784;50.734;7.086;2023-07-29T04:53:32;19.31;95.58
68801;SHT31;55784;50.734;7.086;2023-07-29T04:55:58;19.37;95.49
68801;SHT31;55784;50.734;7.086;2023-07-29T04:58:23;19.38;95.31
68801;SHT31;55784;50.734;7.086;2023-07-29T05:00:49;19.40;95.24
68801;SHT31;55784;50.734;7.086;2023-07-29T05:03:14;19.44;95.14
68801;SHT31;55784;50.734;7.086;2023-07-29T05:05:39;19.44;95.09
68801;SHT31;55784;50.734;7.086;2023-07-29T05:08:05;19.46;94.91
68801;SHT31;55784;50.734;7.086;2023-07-29T05:10:30;19.47;94.74
68801;SHT31;55784;50.734;7.086;2023-07-29T05:12:55;19.46;94.73
68801;SHT31;55784;50.734;7.086;2023-07-29T05:15:20;19.48;94.72
68801;SHT31;55784;50.734;7.086;2023-07-29T05:17:46;19.51;94.77
68801;SHT31;55784;50.734;7.086;2023-07-29T05:20:11;19.50;94.78
68801;SHT31;55784;50.734;7.086;2023-07-29T05:22:37;19.57;94.65
68801;SHT31;55784;50.734;7.086;2023-07-29T05:25:02;19.58;94.82
68801;SHT31;55784;50.734;7.086;2023-07-29T05:27:28;19.64;94.49
68801;SHT31;55784;50.734;7.086;2023-07-29T05:29:53;19.75;94.26
68801;SHT31;55784;50.734;7.086;2023-07-29T05:32:18;19.91;93.67
68801;SHT31;55784;50.734;7.086;2023-07-29T05:34:44;19.99;93.13
68801;SHT31;55784;50.734;7.086;2023-07-29T05:37:10;20.04;93.03
68801;SHT31;55784;50.734;7.086;2023-07-29T05:39:35;20.08;92.73
68801;SHT31;55784;50.734;7.086;2023-07-29T05:42:00;20.13;92.64
68801;SHT31;55784;50.734;7.086;2023-07-29T05:44:27;20.33;92.55
68801;SHT31;55784;50.734;7.086;2023-07-29T05:46:53;20.40;92.20
68801;SHT31;55784;50.734;7.086;2023-07-29T05:49:18;20.36;91.59
68801;SHT31;55784;50.734;7.086;2023-07-29T05:51:43;20.32;91.75
68801;SHT31;55784;50.734;7.086;2023-07-29T05:54:09;20.23;92.16
68801;SHT31;55784;50.734;7.086;2023-07-29T05:56:34;20.22;92.25
68801;SHT31;55784;50.734;7.086;2023-07-29T05:58:59;20.19;92.48
68801;SHT31;55784;50.734;7.086;2023-07-29T06:01:25;20.13;92.45
68801;SHT31;55784;50.734;7.086;2023-07-29T06:03:51;20.25;92.05
68801;SHT31;55784;50.734;7.086;2023-07-29T06:06:16;20.32;92.07
68801;SHT31;55784;50.734;7.086;2023-07-29T06:08:41;20.42;91.89
68801;SHT31;55784;50.734;7.086;2023-07-29T06:11:07;20.43;91.61
68801;SHT31;55784;50.734;7.086;2023-07-29T06:13:32;20.39;91.07
68801;SHT31;55784;50.734;7.086;2023-07-29T06:15:58;20.33;91.34
68801;SHT31;55784;50.734;7.086;2023-07-29T06:18:24;20.33;91.07
68801;SHT31;55784;50.734;7.086;2023-07-29T06:20:50;20.40;91.06
68801;SHT31;55784;50.734;7.086;2023-07-29T06:23:15;20.35;90.83
68801;SHT31;55784;50.734;7.086;2023-07-29T06:25:40;20.26;91.19
68801;SHT31;55784;50.734;7.086;2023-07-29T06:28:06;20.12;92.01
68801;SHT31;55784;50.734;7.086;2023-07-29T06:30:31;20.12;91.75
68801;SHT31;55784;50.734;7.086;2023-07-29T06:32:56;20.06;91.67
68801;SHT31;55784;50.734;7.086;2023-07-29T06:35:22;20.16;91.82
68801;SHT31;55784;50.734;7.086;2023-07-29T06:37:47;20.25;91.63
68801;SHT31;55784;50.734;7.086;2023-07-29T06:40:12;20.32;89.25
68801;SHT31;55784;50.734;7.086;2023-07-29T06:42:37;20.40;89.69
68801;SHT31;55784;50.734;7.086;2023-07-29T06:45:04;20.37;89.31
68801;SHT31;55784;50.734;7.086;2023-07-29T06:47:30;20.40;89.10
68801;SHT31;55784;50.734;7.086;2023-07-29T06:49:55;20.36;88.81
68801;SHT31;55784;50.734;7.086;2023-07-29T06:52:21;20.35;88.33
68801;SHT31;55784;50.734;7.086;2023-07-29T06:54:46;20.43;88.26
68801;SHT31;55784;50.734;7.086;2023-07-29T06:57:11;20.52;88.17
68801;SHT31;55784;50.734;7.086;2023-07-29T06:59:37;20.77;86.98
68801;SHT31;55784;50.734;7.086;2023-07-29T07:02:02;20.60;87.29
68801;SHT31;55784;50.734;7.086;2023-07-29T07:04:27;20.88;87.43
68801;SHT31;55784;50.734;7.086;2023-07-29T07:06:53;20.66;87.44
68801;SHT31;55784;50.734;7.086;2023-07-29T07:09:19;20.86;88.21
68801;SHT31;55784;50.734;7.086;2023-07-29T07:11:44;20.67;87.38
68801;SHT31;55784;50.734;7.086;2023-07-29T07:14:09;20.49;88.03
68801;SHT31;55784;50.734;7.086;2023-07-29T07:16:35;20.39;87.28
68801;SHT31;55784;50.734;7.086;2023-07-29T07:19:02;20.35;87.35
68801;SHT31;55784;50.734;7.086;2023-07-29T07:21:27;20.42;87.58
68801;SHT31;55784;50.734;7.086;2023-07-29T07:23:52;20.57;87.56
68801;SHT31;55784;50.734;7.086;2023-07-29T07:26:18;20.35;87.75
68801;SHT31;55784;50.734;7.086;2023-07-29T07:28:43;20.52;87.39
68801;SHT31;55784;50.734;7.086;2023-07-29T07:31:08;20.54;86.84
68801;SHT31;55784;50.734;7.086;2023-07-29T07:33:34;20.66;86.00
68801;SHT31;55784;50.734;7.086;2023-07-29T07:35:59;20.79;86.74
68801;SHT31;55784;50.734;7.086;2023-07-29T07:38:24;21.03;85.33
68801;SHT31;55784;50.734;7.086;2023-07-29T07:40:56;21.24;84.96
68801;SHT31;55784;50.734;7.086;2023-07-29T07:43:22;21.18;83.62
68801;SHT31;55784;50.734;7.086;2023-07-29T07:45:48;21.44;83.84
68801;SHT31;55784;50.734;7.086;2023-07-29T07:48:13;21.37;83.32
68801;SHT31;55784;50.734;7.086;2023-07-29T07:50:39;21.65;82.02
68801;SHT31;55784;50.734;7.086;2023-07-29T07:53:05;21.72;81.97
68801;SHT31;55784;50.734;7.086;2023-07-29T07:55:30;21.86;81.78
68801;SHT31;55784;50.734;7.086;2023-07-29T07:57:55;21.98;80.86
68801;SHT31;55784;50.734;7.086;2023-07-29T08:00:21;22.32;80.11
68801;SHT31;55784;50.734;7.086;2023-07-29T08:02:46;22.49;78.76
68801;SHT31;55784;50.734;7.086;2023-07-29T08:05:11;22.61;79.07
68801;SHT31;55784;50.734;7.086;2023-07-29T08:07:37;22.78;76.07
68801;SHT31;55784;50.734;7.086;2023-07-29T08:10:02;22.56;77.31
68801;SHT31;55784;50.734;7.086;2023-07-29T08:12:27;22.16;76.96
68801;SHT31;55784;50.734;7.086;2023-07-29T08:14:53;22.36;76.07
68801;SHT31;55784;50.734;7.086;2023-07-29T08:17:18;22.28;76.76
68801;SHT31;55784;50.734;7.086;2023-07-29T08:19:43;22.36;76.07
68801;SHT31;55784;50.734;7.086;2023-07-29T08:22:09;22.19;74.16
68801;SHT31;55784;50.734;7.086;2023-07-29T08:24:34;22.35;75.11
68801;SHT31;55784;50.734;7.086;2023-07-29T08:26:59;22.64;73.32
68801;SHT31;55784;50.734;7.086;2023-07-29T08:29:24;22.78;72.88
68801;SHT31;55784;50.734;7.086;2023-07-29T08:31:50;22.84;72.85
68801;SHT31;55784;50.734;7.086;2023-07-29T08:34:16;22.86;72.63
68801;SHT31;55784;50.734;7.086;2023-07-29T08:36:42;23.26;71.77
68801;SHT31;55784;50.734;7.086;2023-07-29T08:39:07;23.07;71.65
68801;SHT31;55784;50.734;7.086;2023-07-29T08:41:46;22.77;72.43
68801;SHT31;55784;50.734;7.086;2023-07-29T08:44:24;22.98;70.88
68801;SHT31;55784;50.734;7.086;2023-07-29T08:46:51;22.74;71.86
68801;SHT31;55784;50.734;7.086;2023-07-29T08:49:18;22.33;72.74
68801;SHT31;55784;50.734;7.086;2023-07-29T08:51:48;22.33;73.99
68801;SHT31;55784;50.734;7.086;2023-07-29T08:54:14;22.29;73.40
68801;SHT31;55784;50.734;7.086;2023-07-29T08:56:41;21.93;74.35
68801;SHT31;55784;50.734;7.086;2023-07-29T08:59:08;21.89;74.50
68801;SHT31;55784;50.734;7.086;2023-07-29T09:01:33;21.75;75.00
68801;SHT31;55784;50.734;7.086;2023-07-29T09:03:59;21.59;75.36
68801;SHT31;55784;50.734;7.086;2023-07-29T09:06:24;21.75;76.27
68801;SHT31;55784;50.734;7.086;2023-07-29T09:08:51;21.83;75.84
68801;SHT31;55784;50.734;7.086;2023-07-29T09:11:18;21.95;75.31
68801;SHT31;55784;50.734;7.086;2023-07-29T09:13:44;22.02;75.81
68801;SHT31;55784;50.734;7.086;2023-07-29T09:16:09;22.21;75.46
68801;SHT31;55784;50.734;7.086;2023-07-29T09:18:35;22.46;74.67
68801;SHT31;55784;50.734;7.086;2023-07-29T09:21:01;22.41;73.29
68801;SHT31;55784;50.734;7.086;2023-07-29T09:23:26;22.23;74.20
68801;SHT31;55784;50.734;7.086;2023-07-29T09:26:03;22.23;75.05
68801;SHT31;55784;50.734;7.086;2023-07-29T09:28:33;22.47;74.45
68801;SHT31;55784;50.734;7.086;2023-07-29T09:30:59;22.56;72.25
68801;SHT31;55784;50.734;7.086;2023-07-29T09:33:26;22.64;71.71
68801;SHT31;55784;50.734;7.086;2023-07-29T09:35:51;22.73;71.93
68801;SHT31;55784;50.734;7.086;2023-07-29T09:38:17;22.91;71.75
68801;SHT31;55784;50.734;7.086;2023-07-29T09:40:42;22.86;71.26
68801;SHT31;55784;50.734;7.086;2023-07-29T09:43:10;23.22;70.57
68801;SHT31;55784;50.734;7.086;2023-07-29T09:45:37;23.37;69.82
68801;SHT31;55784;50.734;7.086;2023-07-29T09:48:03;23.58;69.58
68801;SHT31;55784;50.734;7.086;2023-07-29T09:50:30;23.65;68.98
68801;SHT31;55784;50.734;7.086;2023-07-29T09:52:56;23.46;69.43
68801;SHT31;55784;50.734;7.086;2023-07-29T09:55:25;23.26;69.95
68801;SHT31;55784;50.734;7.086;2023-07-29T09:57:58;23.14;70.72
68801;SHT31;55784;50.734;7.086;2023-07-29T10:00:29;23.04;70.59
68801;SHT31;55784;50.734;7.086;2023-07-29T10:02:56;23.22;70.41
68801;SHT31;55784;50.734;7.086;2023-07-29T10:05:22;23.42;69.75
68801;SHT31;55784;50.734;7.086;2023-07-29T10:07:51;23.35;69.23
68801;SHT31;55784;50.734;7.086;2023-07-29T10:10:17;23.55;69.46
68801;SHT31;55784;50.734;7.086;2023-07-29T10:12:42;23.65;68.81
68801;SHT31;55784;50.734;7.086;2023-07-29T10:15:08;23.53;69.28
68801;SHT31;55784;50.734;7.086;2023-07-29T10:17:36;23.52;69.46
68801;SHT31;55784;50.734;7.086;2023-07-29T10:20:03;23.37;69.57
68801;SHT31;55784;50.734;7.086;2023-07-29T10:22:33;23.35;70.78
68801;SHT31;55784;50.734;7.086;2023-07-29T10:25:04;23.24;71.00
68801;SHT31;55784;50.734;7.086;2023-07-29T10:28:04;23.25;74.29
68801;SHT31;55784;50.734;7.086;2023-07-29T10:30:30;23.35;76.56
68801;SHT31;55784;50.734;7.086;2023-07-29T10:32:58;23.37;76.11
68801;SHT31;55784;50.734;7.086;2023-07-29T10:35:24;23.53;76.19
68801;SHT31;55784;50.734;7.086;2023-07-29T10:37:50;23.56;76.91
68801;SHT31;55784;50.734;7.086;2023-07-29T10:40:18;23.39;76.06
68801;SHT31;55784;50.734;7.086;2023-07-29T10:43:11;23.07;75.55
68801;SHT31;55784;50.734;7.086;2023-07-29T10:45:41;23.00;76.99
68801;SHT31;55784;50.734;7.086;2023-07-29T10:48:11;22.98;76.91
68801;SHT31;55784;50.734;7.086;2023-07-29T10:50:37;23.11;78.59
68801;SHT31;55784;50.734;7.086;2023-07-29T10:53:02;23.25;78.19
68801;SHT31;55784;50.734;7.086;2023-07-29T10:55:32;23.37;77.98
68801;SHT31;55784;50.734;7.086;2023-07-29T10:58:27;23.56;78.32
68801;SHT31;55784;50.734;7.086;2023-07-29T11:00:55;23.65;77.31
68801;SHT31;55784;50.734;7.086;2023-07-29T11:03:20;23.79;77.62
68801;SHT31;55784;50.734;7.086;2023-07-29T11:05:50;23.85;76.94
68801;SHT31;55784;50.734;7.086;2023-07-29T11:10:43;24.06;77.36
68801;SHT31;55784;50.734;7.086;2023-07-29T11:13:10;24.18;75.25
68801;SHT31;55784;50.734;7.086;2023-07-29T11:15:38;24.53;74.85
68801;SHT31;55784;50.734;7.086;2023-07-29T11:18:05;24.94;73.33
68801;SHT31;55784;50.734;7.086;2023-07-29T11:20:51;25.20;72.32
68801;SHT31;55784;50.734;7.086;2023-07-29T11:23:18;25.39;71.82
68801;SHT31;55784;50.734;7.086;2023-07-29T11:25:44;25.38;72.09
68801;SHT31;55784;50.734;7.086;2023-07-29T11:28:10;25.40;70.84
68801;SHT31;55784;50.734;7.086;2023-07-29T11:30:39;25.59;71.67
68801;SHT31;55784;50.734;7.086;2023-07-29T11:33:04;25.52;70.79
68801;SHT31;55784;50.734;7.086;2023-07-29T11:35:29;25.63;69.87
68801;SHT31;55784;50.734;7.086;2023-07-29T11:37:55;25.54;70.70
68801;SHT31;55784;50.734;7.086;2023-07-29T11:40:23;25.69;70.24
68801;SHT31;55784;50.734;7.086;2023-07-29T11:42:51;25.84;70.17
68801;SHT31;55784;50.734;7.086;2023-07-29T11:45:17;25.69;70.75
68801;SHT31;55784;50.734;7.086;2023-07-29T11:47:43;25.76;70.63
68801;SHT31;55784;50.734;7.086;2023-07-29T11:50:12;25.79;70.30
68801;SHT31;55784;50.734;7.086;2023-07-29T11:52:45;25.79;71.38
68801;SHT31;55784;50.734;7.086;2023-07-29T11:55:12;25.83;70.49
68801;SHT31;55784;50.734;7.086;2023-07-29T11:57:38;25.96;70.84
68801;SHT31;55784;50.734;7.086;2023-07-29T12:00:05;26.00;68.63
68801;SHT31;55784;50.734;7.086;2023-07-29T12:02:32;25.76;69.56
68801;SHT31;55784;50.734;7.086;2023-07-29T12:04:58;26.16;69.90
68801;SHT31;55784;50.734;7.086;2023-07-29T12:07:23;26.27;68.82
68801;SHT31;55784;50.734;7.086;2023-07-29T12:09:49;26.40;67.85
68801;SHT31;55784;50.734;7.086;2023-07-29T12:12:15;26.59;68.13
68801;SHT31;55784;50.734;7.086;2023-07-29T12:14:44;26.56;67.47
68801;SHT31;55784;50.734;7.086;2023-07-29T12:17:12;25.98;66.15
68801;SHT31;55784;50.734;7.086;2023-07-29T12:19:39;26.10;66.91
68801;SHT31;55784;50.734;7.086;2023-07-29T12:22:06;26.00;67.79
68801;SHT31;55784;50.734;7.086;2023-07-29T12:24:37;25.91;67.10
68801;SHT31;55784;50.734;7.086;2023-07-29T12:27:03;25.70;68.01
68801;SHT31;55784;50.734;7.086;2023-07-29T12:29:28;25.56;68.82
68801;SHT31;55784;50.734;7.086;2023-07-29T12:32:01;25.45;68.93
68801;SHT31;55784;50.734;7.086;2023-07-29T12:34:28;25.30;69.05
68801;SHT31;55784;50.734;7.086;2023-07-29T12:36:55;25.25;68.72
68801;SHT31;55784;50.734;7.086;2023-07-29T12:39:26;25.04;69.32
68801;SHT31;55784;50.734;7.086;2023-07-29T12:41:57;24.81;68.85
68801;SHT31;55784;50.734;7.086;2023-07-29T12:44:24;24.67;69.31
68801;SHT31;55784;50.734;7.086;2023-07-29T12:46:49;24.67;70.53
68801;SHT31;55784;50.734;7.086;2023-07-29T12:49:15;24.69;69.03
68801;SHT31;55784;50.734;7.086;2023-07-29T12:51:41;24.44;69.53
68801;SHT31;55784;50.734;7.086;2023-07-29T12:54:06;24.79;69.20
68801;SHT31;55784;50.734;7.086;2023-07-29T12:56:32;24.67;70.36
68801;SHT31;55784;50.734;7.086;2023-07-29T12:58:59;24.51;70.97
68801;SHT31;55784;50.734;7.086;2023-07-29T13:01:25;24.60;70.07
68801;SHT31;55784;50.734;7.086;2023-07-29T13:03:50;24.88;69.25
68801;SHT31;55784;50.734;7.086;2023-07-29T13:06:16;24.79;69.16
68801;SHT31;55784;50.734;7.086;2023-07-29T13:08:42;24.98;69.25
68801;SHT31;55784;50.734;7.086;2023-07-29T13:11:08;24.81;69.67
68801;SHT31;55784;50.734;7.086;2023-07-29T13:13:33;24.75;69.46
68801;SHT31;55784;50.734;7.086;2023-07-29T13:15:59;24.85;68.93
68801;SHT31;55784;50.734;7.086;2023-07-29T13:18:24;24.91;68.57
68801;SHT31;55784;50.734;7.086;2023-07-29T13:20:50;24.75;68.13
68801;SHT31;55784;50.734;7.086;2023-07-29T13:23:15;24.41;68.72
68801;SHT31;55784;50.734;7.086;2023-07-29T13:25:41;24.06;69.55
68801;SHT31;55784;50.734;7.086;2023-07-29T13:28:06;24.14;69.71
68801;SHT31;55784;50.734;7.086;2023-07-29T13:30:32;23.66;72.62
68801;SHT31;55784;50.734;7.086;2023-07-29T13:32:58;23.31;73.41
68801;SHT31;55784;50.734;7.086;2023-07-29T13:35:23;23.12;74.24
68801;SHT31;55784;50.734;7.086;2023-07-29T13:37:48;23.02;75.53
68801;SHT31;55784;50.734;7.086;2023-07-29T13:40:14;22.86;77.75
68801;SHT31;55784;50.734;7.086;2023-07-29T13:42:39;22.77;78.77
68801;SHT31;55784;50.734;7.086;2023-07-29T13:45:05;22.49;80.34
68801;SHT31;55784;50.734;7.086;2023-07-29T13:47:30;22.67;80.75
68801;SHT31;55784;50.734;7.086;2023-07-29T13:49:56;22.81;78.60
68801;SHT31;55784;50.734;7.086;2023-07-29T13:52:21;22.74;78.43
68801;SHT31;55784;50.734;7.086;2023-07-29T13:54:46;22.95;78.18
68801;SHT31;55784;50.734;7.086;2023-07-29T13:57:12;23.07;77.43
68801;SHT31;55784;50.734;7.086;2023-07-29T13:59:37;23.16;77.44
68801;SHT31;55784;50.734;7.086;2023-07-29T14:02:05;22.94;78.67
68801;SHT31;55784;50.734;7.086;2023-07-29T14:04:32;22.78;76.97
68801;SHT31;55784;50.734;7.086;2023-07-29T14:06:57;22.78;78.39
68801;SHT31;55784;50.734;7.086;2023-07-29T14:09:23;22.67;78.97
68801;SHT31;55784;50.734;7.086;2023-07-29T14:11:48;22.63;79.21
68801;SHT31;55784;50.734;7.086;2023-07-29T14:14:13;22.40;78.64
68801;SHT31;55784;50.734;7.086;2023-07-29T14:16:38;22.33;79.56
68801;SHT31;55784;50.734;7.086;2023-07-29T14:19:04;22.29;79.85
68801;SHT31;55784;50.734;7.086;2023-07-29T14:21:29;22.33;79.62
68801;SHT31;55784;50.734;7.086;2023-07-29T14:23:55;22.35;80.26
68801;SHT31;55784;50.734;7.086;2023-07-29T14:26:20;22.54;79.04
68801;SHT31;55784;50.734;7.086;2023-07-29T14:28:46;22.53;78.92
68801;SHT31;55784;50.734;7.086;2023-07-29T14:31:11;22.64;78.26
68801;SHT31;55784;50.734;7.086;2023-07-29T14:33:37;22.37;79.01
68801;SHT31;55784;50.734;7.086;2023-07-29T14:36:02;22.44;79.56
68801;SHT31;55784;50.734;7.086;2023-07-29T14:38:28;22.39;79.73
68801;SHT31;55784;50.734;7.086;2023-07-29T14:40:54;22.23;80.68
68801;SHT31;55784;50.734;7.086;2023-07-29T14:43:21;21.96;81.42
68801;SHT31;55784;50.734;7.086;2023-07-29T14:45:47;21.85;82.53
68801;SHT31;55784;50.734;7.086;2023-07-29T14:48:12;21.69;80.70
68801;SHT31;55784;50.734;7.086;2023-07-29T14:50:38;21.71;80.32
68801;SHT31;55784;50.734;7.086;2023-07-29T14:53:03;21.89;79.82
68801;SHT31;55784;50.734;7.086;2023-07-29T14:55:28;21.74;79.14
68801;SHT31;55784;50.734;7.086;2023-07-29T14:57:53;21.99;81.01
68801;SHT31;55784;50.734;7.086;2023-07-29T15:00:19;22.19;78.72
68801;SHT31;55784;50.734;7.086;2023-07-29T15:02:44;21.99;78.28
68801;SHT31;55784;50.734;7.086;2023-07-29T15:05:09;21.92;79.40
68801;SHT31;55784;50.734;7.086;2023-07-29T15:07:35;22.19;78.35
68801;SHT31;55784;50.734;7.086;2023-07-29T15:10:00;21.98;77.62
68801;SHT31;55784;50.734;7.086;2023-07-29T15:12:25;21.93;78.26
68801;SHT31;55784;50.734;7.086;2023-07-29T15:14:51;21.88;79.04
68801;SHT31;55784;50.734;7.086;2023-07-29T15:17:16;22.12;78.41
68801;SHT31;55784;50.734;7.086;2023-07-29T15:19:41;22.29;78.26
68801;SHT31;55784;50.734;7.086;2023-07-29T15:22:07;21.92;78.18
68801;SHT31;55784;50.734;7.086;2023-07-29T15:24:32;21.92;78.23
68801;SHT31;55784;50.734;7.086;2023-07-29T15:26:57;21.89;78.85
68801;SHT31;55784;50.734;7.086;2023-07-29T15:29:23;22.17;78.57
68801;SHT31;55784;50.734;7.086;2023-07-29T15:31:48;22.36;77.63
68801;SHT31;55784;50.734;7.086;2023-07-29T15:34:13;22.36;77.36